createdAt,value
2022-08-18T00:01:07.651Z,21.40
2022-08-18T00:03:56.989Z,21.50
2022-08-18T00:06:27.958Z,22.40
2022-08-18T00:08:57.945Z,22.40
2022-08-18T00:11:26.092Z,20.40
2022-08-18T00:13:54.245Z,21.37
2022-08-18T00:16:22.383Z,22.23
2022-08-18T00:18:51.910Z,22.23
2022-08-18T00:21:20.094Z,21.73
2022-08-18T00:23:48.220Z,23.07
2022-08-18T00:26:16.309Z,21.40
2022-08-18T00:28:44.414Z,21.30
2022-08-18T00:31:12.496Z,21.37
2022-08-18T00:33:40.605Z,22.13
2022-08-18T00:36:10.297Z,22.03
2022-08-18T00:38:38.440Z,21.53
2022-08-18T00:41:06.705Z,22.07
2022-08-18T00:43:39.911Z,21.90
2022-08-18T00:46:09.195Z,21.97
2022-08-18T00:48:37.544Z,22.67
2022-08-18T00:51:11.593Z,22.33
2022-08-18T00:53:44.092Z,22.70
2022-08-18T00:56:16.327Z,21.60
2022-08-18T00:58:47.003Z,21.37
2022-08-18T01:01:15.471Z,21.67
2022-08-18T01:03:43.710Z,22.13
2022-08-18T01:06:18.422Z,22.50
2022-08-18T01:08:46.517Z,21.50
2022-08-18T01:11:14.719Z,21.97
2022-08-18T01:13:42.943Z,21.30
2022-08-18T01:16:28.403Z,22.03
2022-08-18T01:19:14.038Z,23.30
2022-08-18T01:21:52.126Z,21.47
2022-08-18T01:24:43.337Z,20.17
2022-08-18T01:27:11.737Z,21.50
2022-08-18T01:29:43.600Z,20.50
2022-08-18T01:32:12.674Z,21.90
2022-08-18T01:34:40.779Z,22.13
2022-08-18T01:37:10.185Z,23.07
2022-08-18T01:41:11.007Z,21.80
2022-08-18T01:42:30.863Z,21.23
2022-08-18T01:44:58.970Z,20.93
2022-08-18T01:47:28.805Z,22.13
2022-08-18T01:50:01.212Z,20.70
2022-08-18T01:52:29.743Z,20.40
2022-08-18T01:54:59.231Z,21.07
2022-08-18T01:57:27.683Z,22.53
2022-08-18T01:59:55.816Z,21.80
2022-08-18T02:02:25.306Z,21.67
2022-08-18T02:04:53.714Z,21.30
2022-08-18T02:07:21.982Z,21.10
2022-08-18T02:10:00.311Z,22.10
2022-08-18T02:12:29.808Z,22.00
2022-08-18T02:14:58.038Z,21.60
2022-08-18T02:17:26.191Z,21.33
2022-08-18T02:19:54.318Z,23.30
2022-08-18T02:22:22.463Z,22.83
2022-08-18T02:24:50.646Z,20.90
2022-08-18T02:27:20.133Z,21.07
2022-08-18T02:29:48.264Z,23.00
2022-08-18T02:32:16.550Z,22.73
2022-08-18T02:34:47.449Z,22.90
2022-08-18T02:37:24.355Z,21.00
2022-08-18T02:39:52.513Z,22.40
2022-08-18T02:42:22.098Z,23.87
2022-08-18T02:44:50.215Z,22.50
2022-08-18T02:47:20.558Z,20.53
2022-08-18T02:49:48.794Z,20.43
2022-08-18T02:52:23.303Z,22.07
2022-08-18T02:54:52.784Z,22.20
2022-08-18T02:57:28.064Z,20.83
2022-08-18T02:59:56.271Z,21.50
2022-08-18T03:02:27.881Z,21.17
2022-08-18T03:04:56.041Z,21.70
2022-08-18T03:07:25.514Z,23.13
2022-08-18T03:09:53.646Z,22.50
2022-08-18T03:12:21.766Z,22.20
2022-08-18T03:14:51.334Z,21.73
2022-08-18T03:17:19.478Z,23.23
2022-08-18T03:19:48.041Z,23.23
2022-08-18T03:22:28.728Z,22.47
2022-08-18T03:24:57.919Z,22.47
2022-08-18T03:27:26.072Z,23.70
2022-08-18T03:29:55.696Z,22.37
2022-08-18T03:32:23.854Z,22.37
2022-08-18T03:34:52.112Z,24.23
2022-08-18T03:37:20.249Z,22.80
2022-08-18T03:39:51.922Z,23.10
2022-08-18T03:42:20.084Z,24.00
2022-08-18T03:44:48.195Z,22.10
2022-08-18T03:47:18.151Z,23.10
2022-08-18T03:49:46.298Z,23.37
2022-08-18T03:52:14.904Z,23.33
2022-08-18T03:54:43.281Z,22.17
2022-08-18T03:57:11.878Z,21.63
2022-08-18T03:59:43.822Z,20.80
2022-08-18T04:02:12.325Z,22.73
2022-08-18T04:04:42.937Z,23.20
2022-08-18T04:07:14.369Z,24.63
2022-08-18T04:09:43.125Z,22.90
2022-08-18T04:12:16.216Z,23.00
2022-08-18T04:14:48.151Z,24.13
2022-08-18T04:17:16.864Z,23.57
2022-08-18T04:19:47.001Z,24.43
2022-08-18T04:22:17.384Z,24.07
2022-08-18T04:24:46.814Z,25.37
2022-08-18T04:27:14.918Z,25.60
2022-08-18T04:29:43.029Z,26.07
2022-08-18T04:32:11.211Z,24.43
2022-08-18T04:34:39.375Z,25.43
2022-08-18T04:37:10.965Z,26.30
2022-08-18T04:39:39.177Z,25.60
2022-08-18T04:42:07.445Z,26.30
2022-08-18T04:44:37.942Z,28.40
2022-08-18T04:47:06.567Z,27.20
2022-08-18T04:49:34.688Z,29.43
2022-08-18T04:52:26.612Z,28.30
2022-08-18T04:55:10.258Z,31.40
2022-08-18T04:57:44.515Z,29.00
2022-08-18T05:00:13.859Z,28.70
2022-08-18T05:02:41.998Z,28.80
2022-08-18T05:05:11.244Z,29.40
2022-08-18T05:07:44.939Z,28.60
2022-08-18T05:10:17.757Z,30.67
2022-08-18T05:12:48.373Z,30.37
2022-08-18T05:15:17.835Z,33.17
2022-08-18T05:17:48.106Z,32.10
2022-08-18T05:20:19.130Z,32.40
2022-08-18T05:22:47.629Z,34.27
2022-08-18T05:25:17.521Z,33.33
2022-08-18T05:27:45.684Z,33.20
2022-08-18T05:30:15.862Z,33.80
2022-08-18T05:32:48.978Z,35.03
2022-08-18T05:35:23.368Z,32.17
2022-08-18T05:38:02.106Z,34.77
2022-08-18T05:40:31.950Z,32.77
2022-08-18T05:43:00.061Z,33.70
2022-08-18T05:45:28.549Z,32.67
2022-08-18T05:47:59.475Z,34.43
2022-08-18T05:50:41.423Z,33.63
2022-08-18T05:53:18.431Z,33.90
2022-08-18T05:56:12.339Z,35.10
2022-08-18T05:58:42.117Z,33.17
2022-08-18T06:01:14.723Z,33.17
2022-08-18T06:03:47.114Z,31.07
2022-08-18T06:06:16.502Z,32.23
2022-08-18T06:08:46.583Z,35.30
2022-08-18T06:11:17.325Z,34.60
2022-08-18T06:13:59.340Z,35.53
2022-08-18T06:16:34.181Z,33.40
2022-08-18T06:19:03.945Z,34.00
2022-08-18T06:21:39.325Z,33.60
2022-08-18T06:24:12.390Z,34.17
2022-08-18T06:26:45.511Z,33.70
2022-08-18T06:29:23.100Z,33.93
2022-08-18T06:31:54.702Z,35.90
2022-08-18T06:34:26.956Z,35.50
2022-08-18T06:36:56.615Z,34.93
2022-08-18T06:39:27.700Z,35.10
2022-08-18T06:41:57.250Z,35.27
2022-08-18T06:44:33.422Z,36.10
2022-08-18T06:47:05.340Z,33.67
2022-08-18T06:49:39.933Z,36.30
2022-08-18T06:52:22.215Z,34.00
2022-08-18T06:54:51.865Z,33.80
2022-08-18T06:57:30.597Z,33.87
2022-08-18T07:00:01.216Z,34.93
2022-08-18T07:02:48.287Z,33.73
2022-08-18T07:05:22.170Z,33.93
2022-08-18T07:08:05.526Z,33.63
2022-08-18T07:10:35.232Z,34.33
2022-08-18T07:13:27.309Z,34.17
2022-08-18T07:15:55.822Z,33.13
2022-08-18T07:18:26.332Z,33.60
2022-08-18T07:20:55.758Z,33.10
2022-08-18T07:23:29.656Z,34.10
2022-08-18T07:26:09.780Z,32.27
2022-08-18T07:28:41.870Z,34.03
2022-08-18T07:31:21.674Z,34.90
2022-08-18T07:33:58.004Z,34.07
2022-08-18T07:36:29.917Z,33.77
2022-08-18T07:39:00.182Z,33.70
2022-08-18T07:41:30.249Z,30.97
2022-08-18T07:44:13.578Z,32.13
2022-08-18T07:46:45.420Z,32.67
2022-08-18T07:49:15.678Z,30.50
2022-08-18T07:51:48.240Z,31.10
2022-08-18T07:54:48.913Z,31.20
2022-08-18T07:57:21.931Z,31.30
2022-08-18T07:59:54.080Z,32.30
2022-08-18T08:02:30.101Z,31.13
2022-08-18T08:05:03.320Z,31.60
2022-08-18T08:07:32.861Z,32.67
2022-08-18T08:10:23.973Z,32.10
2022-08-18T08:13:06.039Z,30.40
2022-08-18T08:15:43.472Z,31.97
2022-08-18T08:18:13.695Z,31.40
2022-08-18T08:20:45.062Z,31.17
2022-08-18T08:23:18.578Z,30.13
2022-08-18T08:25:58.509Z,29.37
2022-08-18T08:28:33.945Z,30.80
2022-08-18T08:31:35.300Z,30.87
2022-08-18T08:34:06.010Z,30.53
2022-08-18T08:36:35.921Z,29.17
2022-08-18T08:39:06.106Z,31.00
2022-08-18T08:41:35.716Z,30.00
2022-08-18T08:44:10.439Z,29.67
2022-08-18T08:46:43.405Z,31.43
2022-08-18T08:49:15.821Z,29.30
2022-08-18T08:51:46.531Z,29.20
2022-08-18T08:54:18.289Z,29.90
2022-08-18T08:56:47.868Z,31.50
2022-08-18T08:59:17.127Z,29.37
2022-08-18T09:02:27.066Z,29.83
2022-08-18T09:05:08.924Z,29.63
2022-08-18T09:08:11.908Z,28.57
2022-08-18T09:11:00.195Z,29.53
2022-08-18T09:14:09.072Z,28.40
2022-08-18T09:16:42.583Z,29.77
2022-08-18T09:19:32.004Z,29.37
2022-08-18T09:22:01.481Z,28.93
2022-08-18T09:24:31.707Z,28.97
2022-08-18T09:27:14.896Z,28.67
2022-08-18T09:29:51.309Z,28.40
2022-08-18T09:32:35.558Z,27.80
2022-08-18T09:35:20.222Z,28.20
2022-08-18T09:38:22.740Z,28.00
2022-08-18T09:41:12.604Z,28.83
2022-08-18T09:43:41.624Z,26.97
2022-08-18T09:46:12.400Z,28.00
2022-08-18T09:48:43.221Z,28.00
2022-08-18T09:51:39.955Z,27.83
2022-08-18T09:54:21.459Z,26.73
2022-08-18T09:57:24.499Z,28.37
2022-08-18T10:00:24.335Z,29.03
2022-08-18T10:03:31.254Z,28.47
2022-08-18T10:06:07.287Z,26.70
2022-08-18T10:09:27.184Z,26.67
2022-08-18T10:12:32.350Z,26.80
2022-08-18T10:15:33.222Z,26.17
2022-08-18T10:18:11.789Z,26.70
2022-08-18T10:20:44.736Z,26.93
2022-08-18T10:23:13.603Z,26.67
2022-08-18T10:25:46.551Z,25.37
2022-08-18T10:28:54.354Z,28.20
2022-08-18T10:31:24.164Z,26.30
2022-08-18T10:34:16.739Z,28.00
2022-08-18T10:36:48.113Z,26.40
2022-08-18T10:39:18.547Z,25.33
2022-08-18T10:42:04.123Z,25.77
2022-08-18T10:44:33.035Z,25.33
2022-08-18T10:47:02.506Z,26.40
2022-08-18T10:49:33.174Z,25.90
2022-08-18T10:52:20.819Z,25.47
2022-08-18T10:55:16.315Z,26.13
2022-08-18T10:58:13.792Z,24.33
2022-08-18T11:00:53.370Z,27.13
2022-08-18T11:03:52.170Z,25.17
2022-08-18T11:06:22.393Z,25.00
2022-08-18T11:11:53.146Z,25.90
2022-08-18T11:15:01.002Z,24.70
2022-08-18T11:17:57.590Z,23.47
2022-08-18T11:20:30.109Z,24.47
2022-08-18T11:23:00.462Z,24.63
2022-08-18T11:25:31.134Z,24.80
2022-08-18T11:27:59.502Z,27.63
2022-08-18T11:30:32.878Z,24.60
2022-08-18T11:33:08.047Z,23.77
2022-08-18T11:35:47.133Z,24.70
2022-08-18T11:38:23.095Z,25.13
2022-08-18T11:43:43.370Z,25.57
2022-08-18T11:46:27.931Z,24.30
2022-08-18T11:49:00.058Z,27.33
2022-08-18T11:51:31.470Z,26.03
2022-08-18T11:54:00.862Z,24.00
2022-08-18T11:56:30.838Z,24.00
2022-08-18T11:59:00.839Z,24.10
2022-08-18T12:01:41.831Z,23.73
2022-08-18T12:04:22.934Z,24.57
2022-08-18T12:07:04.410Z,23.17
2022-08-18T12:10:17.299Z,20.90
2022-08-18T12:12:28.210Z,22.80
2022-08-18T12:15:13.695Z,22.07
2022-08-18T12:17:52.506Z,20.73
2022-08-18T12:20:22.949Z,22.03
2022-08-18T12:22:51.687Z,21.07
2022-08-18T12:28:10.897Z,20.70
2022-08-18T12:30:42.279Z,20.90
2022-08-18T12:33:12.655Z,20.77
2022-08-18T12:35:44.691Z,20.93
2022-08-18T12:38:14.525Z,19.37
2022-08-18T12:40:44.255Z,20.90
2022-08-18T12:46:01.091Z,21.00
2022-08-18T12:48:29.259Z,20.03
2022-08-18T12:53:58.554Z,21.10
2022-08-18T12:56:30.404Z,20.00
2022-08-18T12:58:59.092Z,20.13
2022-08-18T13:01:28.060Z,20.60
2022-08-18T13:04:10.926Z,20.50
2022-08-18T13:06:59.318Z,19.27
2022-08-18T13:09:42.793Z,21.03
2022-08-18T13:12:18.507Z,19.73
2022-08-18T13:14:48.011Z,19.17
2022-08-18T13:17:29.440Z,19.37
2022-08-18T13:20:03.010Z,19.63
2022-08-18T13:22:33.326Z,20.13
2022-08-18T13:25:32.256Z,19.43
2022-08-18T13:28:01.614Z,18.67
2022-08-18T13:30:32.300Z,19.90
2022-08-18T13:33:05.384Z,19.60
2022-08-18T13:35:52.100Z,18.10
2022-08-18T13:38:26.040Z,19.53
2022-08-18T13:40:56.523Z,20.83
2022-08-18T13:43:26.304Z,20.13
2022-08-18T13:45:56.299Z,19.10
2022-08-18T13:48:25.695Z,20.10
2022-08-18T13:50:55.600Z,19.67
2022-08-18T13:53:26.415Z,19.20
2022-08-18T13:55:58.676Z,21.17
2022-08-18T13:58:28.382Z,19.43
2022-08-18T14:01:15.859Z,18.30
2022-08-18T14:03:47.909Z,21.03
2022-08-18T14:06:21.958Z,19.30
2022-08-18T14:08:53.219Z,20.00
2022-08-18T14:11:22.549Z,19.23
2022-08-18T14:13:54.059Z,20.17
2022-08-18T14:16:23.281Z,19.77
2022-08-18T14:19:12.582Z,19.80
2022-08-18T14:22:00.369Z,19.10
2022-08-18T14:24:48.711Z,18.17
2022-08-18T14:27:17.751Z,19.90
2022-08-18T14:29:48.666Z,18.70
2022-08-18T14:32:21.839Z,18.30
2022-08-18T14:35:00.243Z,18.90
2022-08-18T14:37:29.243Z,19.47
2022-08-18T14:39:58.834Z,19.93
2022-08-18T14:42:41.022Z,18.90
2022-08-18T14:45:26.382Z,19.13
2022-08-18T14:47:59.951Z,19.20
2022-08-18T14:50:28.073Z,18.87
2022-08-18T14:52:56.200Z,17.90
2022-08-18T14:55:25.747Z,18.77
2022-08-18T14:57:54.953Z,19.30
2022-08-18T15:00:27.855Z,19.27
2022-08-18T15:02:59.758Z,18.83
2022-08-18T15:05:33.936Z,19.00
2022-08-18T15:08:03.931Z,18.27
2022-08-18T15:10:33.589Z,18.80
2022-08-18T15:13:01.757Z,18.03
2022-08-18T15:15:50.552Z,19.33
2022-08-18T15:18:22.665Z,19.63
2022-08-18T15:21:10.290Z,18.47
2022-08-18T15:24:19.986Z,18.60
2022-08-18T15:26:51.767Z,18.47
2022-08-18T15:29:27.758Z,18.87
2022-08-18T15:32:05.575Z,18.20
2022-08-18T15:34:46.427Z,18.83
2022-08-18T15:37:19.934Z,18.53
2022-08-18T15:39:51.987Z,17.13
2022-08-18T15:42:25.603Z,18.00
2022-08-18T15:44:55.544Z,17.90
2022-08-18T15:47:25.425Z,17.30
2022-08-18T15:49:54.816Z,17.27
2022-08-18T15:52:26.203Z,17.33
2022-08-18T15:54:57.016Z,17.00
2022-08-18T15:57:38.893Z,16.77
2022-08-18T16:00:12.047Z,16.77
2022-08-18T16:02:40.940Z,16.37
2022-08-18T16:05:14.147Z,17.70
2022-08-18T16:07:53.558Z,18.47
2022-08-18T16:10:22.517Z,17.60
2022-08-18T16:12:52.261Z,16.43
2022-08-18T16:15:36.393Z,17.33
2022-08-18T16:18:05.528Z,16.90
2022-08-18T16:20:33.736Z,17.70
2022-08-18T16:23:01.891Z,16.57
2022-08-18T16:25:30.028Z,16.97
2022-08-18T16:28:01.225Z,16.50
2022-08-18T16:30:29.613Z,16.83
2022-08-18T16:33:02.821Z,16.43
2022-08-18T16:35:31.174Z,17.33
2022-08-18T16:38:03.461Z,17.27
2022-08-18T16:40:32.090Z,16.93
2022-08-18T16:43:01.691Z,17.30
2022-08-18T16:45:31.513Z,16.57
2022-08-18T16:47:59.617Z,17.40
2022-08-18T16:50:28.084Z,17.00
2022-08-18T16:53:02.310Z,16.23
2022-08-18T16:55:30.628Z,16.10
2022-08-18T16:58:16.302Z,16.20
2022-08-18T17:01:03.235Z,16.00
2022-08-18T17:03:48.885Z,16.47
2022-08-18T17:06:18.526Z,17.23
2022-08-18T17:08:46.844Z,15.70
2022-08-18T17:11:18.322Z,16.37
2022-08-18T17:13:46.841Z,16.20
2022-08-18T17:16:16.984Z,15.93
2022-08-18T17:18:45.076Z,15.50
2022-08-18T17:21:14.451Z,16.27
2022-08-18T17:23:43.064Z,17.00
2022-08-18T17:26:16.568Z,16.70
2022-08-18T17:28:54.279Z,15.40
2022-08-18T17:31:25.178Z,15.77
2022-08-18T17:33:53.378Z,16.47
2022-08-18T17:36:32.681Z,15.73
2022-08-18T17:39:02.769Z,15.93
2022-08-18T17:41:31.159Z,15.13
2022-08-18T17:44:02.054Z,15.43
2022-08-18T17:46:39.024Z,16.10
2022-08-18T17:49:12.376Z,15.50
2022-08-18T17:51:44.431Z,15.37
2022-08-18T17:54:24.482Z,14.30
2022-08-18T17:56:54.151Z,14.80
2022-08-18T17:59:45.934Z,15.27
2022-08-18T18:02:29.862Z,15.10
2022-08-18T18:04:58.763Z,14.60
2022-08-18T18:07:27.982Z,14.40
2022-08-18T18:09:58.193Z,13.83
2022-08-18T18:12:29.680Z,15.47
2022-08-18T18:14:58.516Z,14.30
2022-08-18T18:17:39.604Z,14.00
2022-08-18T18:20:16.975Z,14.23
2022-08-18T18:22:45.264Z,15.57
2022-08-18T18:25:13.848Z,14.67
2022-08-18T18:27:43.703Z,14.70
2022-08-18T18:30:28.016Z,14.20
2022-08-18T18:33:00.250Z,14.73
2022-08-18T18:35:29.028Z,14.47
2022-08-18T18:37:58.432Z,13.97
2022-08-18T18:40:30.554Z,12.67
2022-08-18T18:42:59.133Z,14.03
2022-08-18T18:45:31.597Z,13.37
2022-08-18T18:48:05.738Z,13.67
2022-08-18T18:50:53.073Z,14.33
2022-08-18T18:53:27.949Z,13.60
2022-08-18T18:56:04.130Z,14.00
2022-08-18T18:58:38.515Z,13.63
2022-08-18T19:01:09.471Z,12.97
2022-08-18T19:03:40.352Z,13.07
2022-08-18T19:06:21.634Z,13.93
2022-08-18T19:08:55.422Z,13.30
2022-08-18T19:11:27.146Z,12.03
2022-08-18T19:13:57.049Z,12.77
2022-08-18T19:16:28.426Z,12.30
2022-08-18T19:19:36.346Z,11.63
2022-08-18T19:22:05.573Z,11.77
2022-08-18T19:24:38.785Z,12.67
2022-08-18T19:27:07.034Z,11.90
2022-08-18T19:29:37.758Z,12.30
2022-08-18T19:32:08.207Z,12.20
2022-08-18T19:34:42.467Z,11.60
2022-08-18T19:37:27.331Z,12.43
2022-08-18T19:40:02.678Z,10.53
2022-08-18T19:42:35.422Z,11.07
2022-08-18T19:45:16.480Z,11.37
2022-08-18T19:47:48.449Z,11.00
2022-08-18T19:50:27.302Z,10.33
2022-08-18T19:53:21.585Z,10.20
2022-08-18T19:56:10.352Z,9.37
2022-08-18T19:59:15.089Z,9.67
2022-08-18T20:01:49.624Z,10.93
2022-08-18T20:04:25.749Z,10.17
2022-08-18T20:07:31.605Z,10.40
2022-08-18T20:10:22.773Z,8.90
2022-08-18T20:13:15.382Z,9.40
2022-08-18T20:16:00.133Z,9.60
2022-08-18T20:18:35.540Z,8.70
2022-08-18T20:21:41.613Z,9.80
2022-08-18T20:24:38.442Z,8.03
2022-08-18T20:27:36.108Z,8.67
2022-08-18T20:30:32.117Z,8.80
2022-08-18T20:33:21.225Z,8.37
2022-08-18T20:35:55.843Z,7.70
2022-08-18T20:38:35.565Z,7.23
2022-08-18T20:41:33.064Z,7.00
2022-08-18T20:44:46.086Z,7.43
2022-08-18T20:47:42.042Z,7.80
2022-08-18T20:50:37.208Z,7.10
2022-08-18T20:53:13.177Z,7.50
2022-08-18T20:55:46.915Z,7.20
2022-08-18T20:58:18.383Z,7.40
2022-08-18T21:00:48.758Z,6.70
2022-08-18T21:03:20.603Z,7.60
2022-08-18T21:05:49.812Z,7.10
2022-08-18T21:08:26.496Z,6.80
2022-08-18T21:10:57.147Z,8.10
2022-08-18T21:13:36.141Z,7.40
2022-08-18T21:16:05.120Z,6.90
2022-08-18T21:18:35.601Z,7.60
2022-08-18T21:21:06.229Z,6.40
2022-08-18T21:23:38.328Z,6.70
2022-08-18T21:26:08.059Z,6.73
2022-08-18T21:28:38.870Z,6.00
2022-08-18T21:31:29.130Z,7.67
2022-08-18T21:33:57.243Z,7.17
2022-08-18T21:36:32.104Z,7.37
2022-08-18T21:39:06.542Z,5.90
2022-08-18T21:41:34.984Z,6.80
2022-08-18T21:44:06.768Z,6.83
2022-08-18T21:46:35.008Z,6.30
2022-08-18T21:49:03.699Z,6.23
2022-08-18T21:51:40.484Z,6.90
2022-08-18T21:54:08.952Z,6.60
2022-08-18T21:56:37.477Z,6.70
2022-08-18T21:59:09.655Z,6.90
2022-08-18T22:01:38.134Z,7.10
2022-08-18T22:04:09.330Z,6.37
2022-08-18T22:06:40.348Z,6.60
2022-08-18T22:09:36.701Z,7.10
2022-08-18T22:12:39.397Z,6.43
2022-08-18T22:15:09.941Z,6.70
2022-08-18T22:17:44.624Z,6.10
2022-08-18T22:20:41.900Z,6.50
2022-08-18T22:23:43.989Z,6.20
2022-08-18T22:26:22.420Z,6.60
2022-08-18T22:28:55.144Z,6.23
2022-08-18T22:31:25.660Z,6.87
2022-08-18T22:33:54.334Z,6.90
2022-08-18T22:36:24.719Z,5.93
2022-08-18T22:38:53.412Z,6.27
2022-08-18T22:41:21.509Z,6.23
2022-08-18T22:43:54.866Z,6.20
2022-08-18T22:46:25.397Z,6.23
2022-08-18T22:48:54.219Z,5.90
2022-08-18T22:51:23.245Z,6.13
2022-08-18T22:53:51.418Z,6.20
2022-08-18T22:56:34.074Z,5.97
2022-08-18T22:59:13.745Z,6.60
2022-08-18T23:01:46.881Z,6.20
2022-08-18T23:04:16.413Z,6.20
2022-08-18T23:06:51.416Z,5.83
2022-08-18T23:09:21.215Z,6.50
2022-08-18T23:11:49.308Z,6.10
2022-08-18T23:14:17.450Z,5.80
2022-08-18T23:16:47.126Z,6.10
2022-08-18T23:19:15.972Z,6.20
2022-08-18T23:21:44.555Z,6.37
2022-08-18T23:24:13.813Z,5.63
2022-08-18T23:26:41.982Z,6.30
2022-08-18T23:29:11.791Z,5.87
2022-08-18T23:31:40.202Z,6.07
2022-08-18T23:34:10.059Z,5.80
2022-08-18T23:36:45.091Z,6.17
2022-08-18T23:39:13.955Z,5.70
2022-08-18T23:41:42.129Z,5.37
2022-08-18T23:44:11.416Z,5.87
2022-08-18T23:46:39.832Z,5.80
2022-08-18T23:49:10.986Z,6.17
2022-08-18T23:51:44.276Z,6.00
2022-08-18T23:54:14.390Z,5.90
2022-08-18T23:56:42.605Z,6.10
2022-08-18T23:59:11.146Z,5.73
